createdAt,value
2019-05-15T00:00:51.855Z,99.60
2019-05-15T00:03:22.336Z,99.60
2019-05-15T00:05:54.459Z,99.90
2019-05-15T00:08:24.923Z,99.60
2019-05-15T00:10:55.402Z,99.10
2019-05-15T00:13:28.080Z,99.00
2019-05-15T00:15:58.986Z,99.20
2019-05-15T00:18:29.584Z,99.40
2019-05-15T00:21:01.387Z,99.40
2019-05-15T00:23:31.836Z,99.60
2019-05-15T00:26:02.335Z,99.50
2019-05-15T00:28:32.774Z,99.70
2019-05-15T00:31:04.171Z,99.50
2019-05-15T00:33:34.623Z,99.10
2019-05-15T00:36:05.103Z,99.20
2019-05-15T00:38:35.591Z,99.50
2019-05-15T00:41:06.100Z,99.60
2019-05-15T00:43:38.733Z,99.70
2019-05-15T00:46:09.322Z,99.50
2019-05-15T00:48:40.113Z,99.90
2019-05-15T00:51:11.306Z,99.60
2019-05-15T00:53:41.833Z,99.40
2019-05-15T00:56:12.346Z,99.00
2019-05-15T00:58:42.823Z,99.10
2019-05-15T01:01:14.546Z,99.30
2019-05-15T01:03:45.083Z,99.30
2019-05-15T01:06:15.560Z,99.00
2019-05-15T01:08:48.143Z,99.00
2019-05-15T01:11:19.197Z,99.10
2019-05-15T01:13:49.946Z,99.00
2019-05-15T01:16:20.982Z,98.80
2019-05-15T01:18:51.460Z,98.60
2019-05-15T01:21:21.919Z,98.80
2019-05-15T01:23:52.398Z,98.90
2019-05-15T01:26:22.852Z,98.80
2019-05-15T01:28:53.329Z,98.90
2019-05-15T01:31:23.788Z,98.90
2019-05-15T01:33:54.281Z,98.80
2019-05-15T01:36:28.667Z,98.80
2019-05-15T01:38:58.679Z,98.90
2019-05-15T01:41:30.262Z,98.90
2019-05-15T01:44:00.725Z,99.00
2019-05-15T01:46:31.282Z,99.10
2019-05-15T01:49:01.807Z,99.30
2019-05-15T01:51:32.325Z,99.50
2019-05-15T01:54:02.766Z,99.30
2019-05-15T01:56:33.266Z,99.30
2019-05-15T01:59:03.784Z,99.40
2019-05-15T02:01:34.300Z,99.40
2019-05-15T02:04:05.433Z,99.50
2019-05-15T02:06:38.923Z,99.30
2019-05-15T02:09:09.383Z,99.10
2019-05-15T02:11:39.872Z,99.10
2019-05-15T02:14:10.339Z,99.40
2019-05-15T02:16:40.830Z,99.40
2019-05-15T02:19:11.283Z,99.60
2019-05-15T02:21:41.780Z,99.60
2019-05-15T02:24:12.310Z,99.70
2019-05-15T02:26:42.794Z,99.90
2019-05-15T02:29:16.613Z,99.90
2019-05-15T02:31:45.472Z,99.90
2019-05-15T02:34:19.209Z,99.90
2019-05-15T02:36:49.241Z,99.90
2019-05-15T02:39:21.687Z,99.90
2019-05-15T02:41:52.173Z,99.90
2019-05-15T02:44:22.637Z,99.90
2019-05-15T02:46:53.118Z,99.90
2019-05-15T02:49:24.064Z,99.90
2019-05-15T02:51:54.520Z,99.90
2019-05-15T02:54:25.023Z,99.90
2019-05-15T02:56:55.478Z,99.80
2019-05-15T02:59:28.868Z,99.70
2019-05-15T03:01:59.526Z,99.60
2019-05-15T03:04:30.166Z,99.90
2019-05-15T03:07:00.653Z,99.80
2019-05-15T03:09:31.840Z,99.90
2019-05-15T03:12:02.319Z,99.90
2019-05-15T03:14:33.209Z,99.90
2019-05-15T03:17:03.760Z,99.80
2019-05-15T03:19:34.286Z,99.80
2019-05-15T03:22:04.902Z,99.90
2019-05-15T03:24:35.385Z,99.90
2019-05-15T03:27:08.978Z,99.90
2019-05-15T03:29:40.328Z,99.90
2019-05-15T03:32:25.270Z,99.90
2019-05-15T03:34:47.095Z,99.90
2019-05-15T03:37:14.891Z,99.90
2019-05-15T03:39:48.473Z,99.90
2019-05-15T03:42:19.119Z,99.90
2019-05-15T03:44:50.340Z,99.90
2019-05-15T03:47:20.905Z,99.90
2019-05-15T03:49:51.396Z,99.90
2019-05-15T03:52:21.918Z,99.90
2019-05-15T03:54:52.407Z,99.90
2019-05-15T03:57:23.382Z,99.90
2019-05-15T03:59:54.182Z,99.90
2019-05-15T04:02:28.774Z,99.90
2019-05-15T04:05:01.671Z,99.90
2019-05-15T04:07:31.233Z,99.90
2019-05-15T04:10:01.768Z,99.90
2019-05-15T04:12:32.247Z,99.90
2019-05-15T04:15:02.855Z,99.90
2019-05-15T04:17:33.416Z,99.90
2019-05-15T04:20:05.718Z,99.90
2019-05-15T04:22:36.232Z,99.90
2019-05-15T04:25:09.741Z,99.90
2019-05-15T04:27:41.980Z,99.90
2019-05-15T04:30:12.731Z,99.90
2019-05-15T04:32:43.200Z,99.50
2019-05-15T04:35:14.001Z,99.60
2019-05-15T04:37:44.455Z,99.30
2019-05-15T04:40:15.089Z,99.20
2019-05-15T04:42:45.531Z,99.00
2019-05-15T04:45:19.159Z,98.90
2019-05-15T04:47:49.877Z,98.80
2019-05-15T04:50:20.664Z,98.90
2019-05-15T04:52:51.152Z,98.90
2019-05-15T04:55:21.651Z,98.80
2019-05-15T04:57:52.093Z,98.90
2019-05-15T05:00:50.591Z,99.10
2019-05-15T05:03:21.332Z,99.40
2019-05-15T05:05:51.998Z,99.00
2019-05-15T05:08:22.452Z,99.20
2019-05-15T05:10:54.520Z,99.20
2019-05-15T05:13:24.991Z,98.90
2019-05-15T05:15:55.483Z,98.70
2019-05-15T05:18:29.827Z,98.70
2019-05-15T05:20:59.482Z,98.80
2019-05-15T05:23:29.945Z,98.80
2019-05-15T05:26:00.437Z,98.90
2019-05-15T05:28:31.911Z,98.70
2019-05-15T05:31:02.382Z,98.20
2019-05-15T05:33:32.886Z,98.90
2019-05-15T05:36:03.642Z,98.40
2019-05-15T05:38:34.136Z,97.90
2019-05-15T05:41:04.599Z,98.40
2019-05-15T05:43:38.075Z,98.30
2019-05-15T05:46:09.276Z,97.90
2019-05-15T05:48:39.920Z,97.40
2019-05-15T05:51:10.868Z,97.90
2019-05-15T05:53:41.353Z,98.00
2019-05-15T05:56:11.851Z,98.00
2019-05-15T05:58:42.321Z,98.50
2019-05-15T06:01:12.816Z,98.50
2019-05-15T06:03:43.278Z,98.40
2019-05-15T06:06:13.768Z,98.10
2019-05-15T06:08:44.312Z,97.90
2019-05-15T06:11:14.815Z,97.80
2019-05-15T06:13:45.914Z,98.00
2019-05-15T06:16:19.015Z,98.00
2019-05-15T06:18:49.655Z,97.70
2019-05-15T06:21:20.154Z,97.70
2019-05-15T06:23:55.164Z,98.10
2019-05-15T06:26:22.839Z,97.90
2019-05-15T06:28:53.343Z,97.60
2019-05-15T06:31:23.849Z,97.60
2019-05-15T06:33:54.351Z,97.40
2019-05-15T06:36:24.816Z,97.70
2019-05-15T06:38:55.412Z,97.70
2019-05-15T06:41:28.476Z,97.30
2019-05-15T06:43:58.881Z,97.10
2019-05-15T06:46:29.506Z,96.90
2019-05-15T06:49:00.003Z,96.50
2019-05-15T06:51:30.516Z,96.70
2019-05-15T06:54:00.984Z,96.50
2019-05-15T06:56:31.481Z,96.20
2019-05-15T06:59:01.946Z,96.30
2019-05-15T07:01:32.435Z,96.20
2019-05-15T07:04:02.906Z,96.50
2019-05-15T07:06:33.408Z,96.30
2019-05-15T07:09:05.061Z,96.30
2019-05-15T07:11:35.628Z,96.40
2019-05-15T07:14:08.653Z,96.10
2019-05-15T07:16:39.042Z,95.60
2019-05-15T07:19:09.640Z,95.40
2019-05-15T07:21:40.139Z,95.60
2019-05-15T07:24:10.647Z,95.30
2019-05-15T07:26:41.101Z,94.90
2019-05-15T07:29:11.591Z,95.00
2019-05-15T07:31:42.120Z,94.70
2019-05-15T07:34:12.714Z,93.80
2019-05-15T07:36:43.210Z,93.90
2019-05-15T07:39:13.703Z,93.00
2019-05-15T07:41:48.212Z,94.50
2019-05-15T07:44:19.173Z,94.40
2019-05-15T07:46:49.659Z,93.80
2019-05-15T07:49:20.202Z,93.80
2019-05-15T07:51:50.690Z,93.80
2019-05-15T07:54:21.196Z,93.20
2019-05-15T07:56:51.656Z,92.40
2019-05-15T07:59:22.211Z,93.50
2019-05-15T08:01:52.667Z,93.70
2019-05-15T08:04:29.438Z,93.30
2019-05-15T08:06:55.334Z,93.40
2019-05-15T08:09:28.269Z,93.20
2019-05-15T08:12:02.678Z,93.40
2019-05-15T08:14:31.235Z,92.50
2019-05-15T08:17:01.696Z,91.80
2019-05-15T08:19:32.198Z,91.90
2019-05-15T08:22:02.669Z,92.10
2019-05-15T08:24:33.237Z,92.30
2019-05-15T08:27:03.717Z,92.80
2019-05-15T08:29:34.207Z,92.70
2019-05-15T08:32:04.783Z,93.10
2019-05-15T08:34:35.315Z,93.10
2019-05-15T08:37:07.842Z,93.00
2019-05-15T08:39:44.703Z,92.40
2019-05-15T08:42:18.693Z,93.30
2019-05-15T08:44:58.251Z,93.50
2019-05-15T08:47:29.652Z,93.00
2019-05-15T08:50:00.453Z,93.00
2019-05-15T08:52:30.979Z,94.00
2019-05-15T08:55:01.561Z,93.40
2019-05-15T08:57:32.093Z,93.20
2019-05-15T09:00:02.638Z,93.10
2019-05-15T09:02:33.134Z,92.70
2019-05-15T09:05:04.287Z,91.90
2019-05-15T09:07:34.754Z,91.70
2019-05-15T09:10:09.274Z,91.90
2019-05-15T09:12:40.023Z,91.20
2019-05-15T09:15:11.891Z,91.10
2019-05-15T09:17:42.399Z,91.00
2019-05-15T09:20:13.498Z,91.90
2019-05-15T09:22:43.990Z,91.70
2019-05-15T09:25:14.889Z,91.20
2019-05-15T09:27:45.345Z,90.30
2019-05-15T09:30:18.348Z,89.60
2019-05-15T09:32:48.983Z,88.90
2019-05-15T09:35:20.811Z,87.30
2019-05-15T09:37:51.340Z,89.00
2019-05-15T09:40:22.046Z,90.10
2019-05-15T09:42:52.548Z,90.00
2019-05-15T09:45:23.264Z,89.30
2019-05-15T09:47:54.329Z,88.70
2019-05-15T09:50:25.163Z,88.00
2019-05-15T09:52:55.671Z,86.70
2019-05-15T09:55:28.394Z,88.30
2019-05-15T09:57:59.190Z,89.00
2019-05-15T10:00:30.332Z,88.90
2019-05-15T10:03:00.867Z,87.70
2019-05-15T10:05:31.359Z,88.70
2019-05-15T10:08:01.841Z,88.60
2019-05-15T10:10:32.320Z,89.00
2019-05-15T10:13:02.816Z,85.90
2019-05-15T10:15:33.314Z,86.10
2019-05-15T10:18:04.964Z,87.60
2019-05-15T10:20:35.534Z,88.30
2019-05-15T10:23:08.598Z,85.90
2019-05-15T10:25:38.949Z,84.70
2019-05-15T10:28:10.404Z,84.10
2019-05-15T10:30:42.257Z,84.70
2019-05-15T10:33:12.729Z,83.20
2019-05-15T10:35:43.390Z,84.60
2019-05-15T10:38:13.927Z,83.90
2019-05-15T10:41:00.044Z,83.60
2019-05-15T10:43:20.087Z,82.20
2019-05-15T10:45:50.013Z,80.80
2019-05-15T10:48:20.827Z,80.50
2019-05-15T10:50:51.314Z,82.00
2019-05-15T10:53:22.073Z,80.20
2019-05-15T10:55:52.534Z,79.60
2019-05-15T10:58:23.689Z,81.00
2019-05-15T11:00:54.159Z,83.10
2019-05-15T11:03:24.715Z,82.00
2019-05-15T11:05:55.177Z,82.90
2019-05-15T11:08:28.797Z,83.10
2019-05-15T11:10:58.538Z,83.90
2019-05-15T11:13:29.538Z,82.50
2019-05-15T11:16:00.026Z,85.60
2019-05-15T11:18:30.735Z,86.10
2019-05-15T11:21:01.475Z,86.00
2019-05-15T11:23:31.990Z,84.70
2019-05-15T11:26:02.517Z,83.80
2019-05-15T11:28:33.396Z,81.60
2019-05-15T11:31:03.955Z,81.20
2019-05-15T11:33:34.436Z,80.40
2019-05-15T11:36:06.361Z,80.80
2019-05-15T11:38:38.221Z,82.00
2019-05-15T11:41:08.910Z,82.90
2019-05-15T11:43:39.468Z,81.80
2019-05-15T11:46:10.224Z,82.70
2019-05-15T11:48:40.793Z,83.40
2019-05-15T11:51:11.272Z,83.80
2019-05-15T11:53:41.932Z,85.00
2019-05-15T11:56:12.468Z,85.50
2019-05-15T11:58:44.496Z,83.20
2019-05-15T12:01:15.041Z,83.50
2019-05-15T12:03:45.589Z,82.90
2019-05-15T12:06:22.022Z,84.80
2019-05-15T12:08:48.272Z,85.40
2019-05-15T12:11:31.715Z,85.20
2019-05-15T12:13:50.927Z,85.90
2019-05-15T12:16:21.447Z,87.40
2019-05-15T12:18:51.922Z,88.00
2019-05-15T12:21:25.388Z,88.40
2019-05-15T12:23:55.573Z,88.80
2019-05-15T12:26:28.919Z,89.40
2019-05-15T12:28:58.947Z,91.50
2019-05-15T12:31:29.770Z,91.30
2019-05-15T12:34:00.317Z,91.20
2019-05-15T12:36:50.838Z,91.80
2019-05-15T12:39:10.696Z,93.70
2019-05-15T12:59:44.905Z,99.90
2019-05-15T13:02:01.377Z,99.90
2019-05-15T13:04:32.281Z,99.90
2019-05-15T13:07:13.061Z,99.90
2019-05-15T13:09:38.167Z,99.90
2019-05-15T13:12:09.922Z,99.90
2019-05-15T13:14:40.381Z,99.90
2019-05-15T13:17:10.870Z,99.90
2019-05-15T13:19:41.346Z,99.90
2019-05-15T13:22:18.901Z,99.90
2019-05-15T13:24:48.270Z,99.90
2019-05-15T13:27:19.042Z,99.90
2019-05-15T13:29:49.534Z,99.90
2019-05-15T13:32:20.007Z,99.90
2019-05-15T13:34:50.495Z,99.90
2019-05-15T13:37:27.327Z,99.90
2019-05-15T13:39:53.309Z,99.90
2019-05-15T13:42:23.772Z,99.90
2019-05-15T13:44:54.267Z,99.90
2019-05-15T13:47:24.732Z,99.90
2019-05-15T13:49:55.604Z,99.90
2019-05-15T13:52:28.278Z,99.90
2019-05-15T13:54:59.090Z,99.90
2019-05-15T13:57:29.887Z,99.90
2019-05-15T14:00:00.650Z,99.90
2019-05-15T14:02:31.134Z,99.90
2019-05-15T14:05:01.640Z,99.90
2019-05-15T14:07:44.906Z,99.90
2019-05-15T14:10:05.612Z,99.90
2019-05-15T14:12:38.216Z,99.90
2019-05-15T14:15:09.387Z,99.90
2019-05-15T14:17:41.484Z,99.90
2019-05-15T14:20:12.194Z,99.90
2019-05-15T14:22:42.690Z,99.90
2019-05-15T14:25:13.349Z,99.90
2019-05-15T14:27:44.020Z,99.90
2019-05-15T14:30:18.147Z,99.90
2019-05-15T14:32:48.752Z,99.90
2019-05-15T14:35:19.405Z,99.90
2019-05-15T14:38:02.502Z,99.90
2019-05-15T14:40:22.390Z,99.90
2019-05-15T14:42:52.848Z,99.90
2019-05-15T14:45:23.501Z,99.90
2019-05-15T14:47:53.951Z,99.90
2019-05-15T14:50:24.438Z,99.90
2019-05-15T14:52:55.045Z,99.90
2019-05-15T14:55:32.398Z,99.90
2019-05-15T14:57:58.941Z,99.90
2019-05-15T15:00:34.516Z,99.90
2019-05-15T15:03:02.037Z,99.90
2019-05-15T15:05:32.667Z,99.90
2019-05-15T15:08:17.232Z,99.90
2019-05-15T15:10:35.368Z,99.90
2019-05-15T15:13:05.925Z,99.90
2019-05-15T15:15:37.984Z,99.90
2019-05-15T15:18:08.753Z,99.90
2019-05-15T15:20:39.221Z,99.90
2019-05-15T15:23:10.519Z,99.90
2019-05-15T15:25:42.966Z,99.90
2019-05-15T15:28:18.682Z,99.90
2019-05-15T15:30:48.705Z,99.90
2019-05-15T15:33:19.855Z,99.90
2019-05-15T15:35:50.426Z,99.90
2019-05-15T15:38:36.661Z,99.90
2019-05-15T15:40:54.083Z,99.90
2019-05-15T15:43:24.751Z,99.90
2019-05-15T15:45:58.246Z,99.90
2019-05-15T15:48:30.405Z,99.90
2019-05-15T15:51:00.872Z,99.90
2019-05-15T15:53:31.360Z,99.90
2019-05-15T15:56:06.914Z,99.90
2019-05-15T15:58:39.139Z,99.90
2019-05-15T16:01:09.770Z,99.90
2019-05-15T16:03:40.539Z,99.90
2019-05-15T16:06:11.022Z,99.90
2019-05-15T16:08:51.998Z,99.90
2019-05-15T16:11:14.052Z,99.90
2019-05-15T16:13:46.357Z,99.90
2019-05-15T16:16:17.943Z,99.90
2019-05-15T16:18:49.111Z,99.90
2019-05-15T16:21:19.868Z,99.90
2019-05-15T16:23:50.359Z,99.90
2019-05-15T16:26:20.849Z,99.90
2019-05-15T16:28:51.390Z,99.90
2019-05-15T16:31:21.871Z,99.90
2019-05-15T16:33:52.353Z,99.90
2019-05-15T16:36:23.002Z,99.90
2019-05-15T16:39:05.320Z,99.90
2019-05-15T16:41:25.718Z,99.90
2019-05-15T16:43:57.841Z,99.90
2019-05-15T16:46:28.355Z,99.90
2019-05-15T16:48:59.227Z,99.90
2019-05-15T16:51:32.382Z,99.90
2019-05-15T16:54:02.353Z,99.90
2019-05-15T16:56:36.305Z,99.90
2019-05-15T16:59:05.182Z,99.90
2019-05-15T17:01:35.680Z,99.90
2019-05-15T17:04:08.317Z,99.90
2019-05-15T17:06:38.818Z,99.90
2019-05-15T17:09:20.856Z,99.90
2019-05-15T17:11:42.210Z,99.90
2019-05-15T17:14:12.695Z,99.90
2019-05-15T17:16:43.240Z,99.90
2019-05-15T17:19:13.777Z,99.90
2019-05-15T17:21:44.241Z,99.90
2019-05-15T17:24:14.753Z,99.90
2019-05-15T17:26:45.225Z,99.90
2019-05-15T17:29:15.716Z,99.90
2019-05-15T17:31:48.651Z,99.90
2019-05-15T17:34:18.374Z,99.90
2019-05-15T17:36:49.127Z,99.90
2019-05-15T17:39:33.784Z,99.90
2019-05-15T17:41:55.050Z,99.90
2019-05-15T17:44:25.688Z,99.90
2019-05-15T17:46:58.473Z,99.90
2019-05-15T17:49:29.105Z,99.90
2019-05-15T17:52:00.789Z,99.90
2019-05-15T17:54:31.247Z,99.90
2019-05-15T17:57:01.777Z,99.90
2019-05-15T17:59:32.343Z,99.90
2019-05-15T18:02:08.398Z,99.90
2019-05-15T18:04:38.718Z,99.90
2019-05-15T18:07:09.873Z,99.90
2019-05-15T18:09:50.700Z,99.90
2019-05-15T18:12:13.038Z,99.90
2019-05-15T18:14:43.626Z,99.90
2019-05-15T18:17:14.199Z,99.90
2019-05-15T18:19:48.555Z,99.90
2019-05-15T18:22:18.427Z,99.90
2019-05-15T18:24:49.732Z,99.90
2019-05-15T18:27:20.243Z,99.90
2019-05-15T18:29:50.711Z,99.90
2019-05-15T18:32:24.103Z,99.90
2019-05-15T18:34:54.591Z,99.90
2019-05-15T18:37:25.057Z,99.90
2019-05-15T18:40:02.403Z,99.90
2019-05-15T18:42:29.231Z,99.90
2019-05-15T18:44:59.792Z,99.90
2019-05-15T18:47:31.491Z,99.90
2019-05-15T18:50:05.365Z,99.90
2019-05-15T18:52:34.229Z,99.90
2019-05-15T18:55:08.007Z,99.90
2019-05-15T18:57:38.865Z,99.90
2019-05-15T19:00:10.868Z,99.90
2019-05-15T19:02:41.441Z,99.90
2019-05-15T19:05:12.459Z,99.90
2019-05-15T19:07:43.000Z,99.90
2019-05-15T19:10:19.343Z,99.90
2019-05-15T19:12:49.813Z,99.90
2019-05-15T19:15:20.948Z,99.90
2019-05-15T19:17:52.643Z,99.90
2019-05-15T19:20:23.231Z,99.90
2019-05-15T19:22:53.714Z,99.90
2019-05-15T19:25:24.211Z,99.90
2019-05-15T19:27:54.685Z,99.90
2019-05-15T19:30:25.433Z,99.90
2019-05-15T19:32:58.521Z,99.90
2019-05-15T19:35:29.876Z,99.90
2019-05-15T19:38:00.436Z,99.90
2019-05-15T19:40:30.980Z,99.90
2019-05-15T19:43:04.010Z,99.90
2019-05-15T19:45:33.641Z,99.90
2019-05-15T19:48:04.285Z,99.90
2019-05-15T19:50:34.780Z,99.90
2019-05-15T19:53:05.261Z,99.90
2019-05-15T19:55:35.758Z,99.90
2019-05-15T19:58:08.777Z,99.90
2019-05-15T20:00:39.341Z,99.90
2019-05-15T20:03:09.999Z,99.90
2019-05-15T20:05:41.683Z,99.90
2019-05-15T20:08:12.201Z,99.90
2019-05-15T20:10:42.660Z,99.90
2019-05-15T20:13:13.227Z,99.90
2019-05-15T20:15:43.694Z,99.90
2019-05-15T20:18:14.269Z,99.90
2019-05-15T20:20:47.791Z,99.90
2019-05-15T20:23:18.473Z,99.90
2019-05-15T20:25:49.174Z,99.90
2019-05-15T20:28:19.665Z,99.90
2019-05-15T20:30:50.168Z,99.90
2019-05-15T20:33:22.287Z,99.90
2019-05-15T20:35:52.862Z,99.90
2019-05-15T20:38:23.334Z,99.90
2019-05-15T20:40:53.835Z,99.90
2019-05-15T20:43:24.294Z,99.90
2019-05-15T20:45:57.706Z,99.90
2019-05-15T20:48:28.944Z,99.90
2019-05-15T20:50:59.570Z,99.90
2019-05-15T20:53:30.062Z,99.90
2019-05-15T20:56:00.770Z,99.90
2019-05-15T20:58:32.280Z,99.90
2019-05-15T21:01:02.921Z,99.90
2019-05-15T21:03:33.429Z,99.90
2019-05-15T21:06:03.898Z,99.90
2019-05-15T21:08:34.430Z,99.90
2019-05-15T21:11:04.993Z,99.90
2019-05-15T21:13:35.543Z,99.90
2019-05-15T21:16:08.271Z,99.90
2019-05-15T21:18:41.442Z,99.90
2019-05-15T21:21:11.272Z,99.90
2019-05-15T21:23:41.756Z,99.90
2019-05-15T21:26:12.217Z,99.90
2019-05-15T21:28:42.724Z,99.90
2019-05-15T21:31:13.570Z,99.90
2019-05-15T21:33:44.061Z,99.90
2019-05-15T21:36:14.556Z,99.90
2019-05-15T21:38:45.016Z,99.90
2019-05-15T21:41:15.525Z,99.90
2019-05-15T21:43:48.223Z,99.90
2019-05-15T21:46:18.858Z,99.90
2019-05-15T21:48:49.533Z,99.90
2019-05-15T21:51:20.019Z,99.90
2019-05-15T21:53:50.525Z,99.90
2019-05-15T21:56:21.050Z,99.90
2019-05-15T21:58:52.613Z,99.90
2019-05-15T22:01:25.161Z,99.90
2019-05-15T22:03:56.010Z,99.90
2019-05-15T22:06:29.075Z,99.90
2019-05-15T22:08:58.878Z,99.90
2019-05-15T22:11:29.834Z,99.90
2019-05-15T22:14:00.505Z,99.90
2019-05-15T22:16:30.999Z,99.90
2019-05-15T22:19:03.162Z,99.90
2019-05-15T22:21:35.409Z,99.90
2019-05-15T22:24:06.079Z,99.90
2019-05-15T22:26:38.117Z,99.90
2019-05-15T22:29:08.977Z,99.90
2019-05-15T22:31:40.062Z,99.90
2019-05-15T22:34:10.823Z,99.90
2019-05-15T22:36:41.979Z,99.90
2019-05-15T22:39:12.561Z,99.90
2019-05-15T22:41:43.054Z,99.90
2019-05-15T22:44:13.570Z,99.90
2019-05-15T22:46:44.080Z,99.90
2019-05-15T22:49:14.579Z,99.90
2019-05-15T22:51:45.092Z,99.90
2019-05-15T22:54:15.576Z,99.90
2019-05-15T22:56:47.973Z,99.90
2019-05-15T22:59:18.264Z,99.90
2019-05-15T23:01:49.304Z,99.90
2019-05-15T23:04:19.950Z,99.90
2019-05-15T23:06:50.456Z,99.90
2019-05-15T23:09:20.959Z,99.90
2019-05-15T23:11:51.538Z,99.90
2019-05-15T23:14:22.269Z,99.90
2019-05-15T23:16:52.790Z,99.90
2019-05-15T23:19:23.278Z,99.90
2019-05-15T23:21:54.549Z,99.90
2019-05-15T23:24:25.116Z,99.90
2019-05-15T23:26:55.643Z,99.90
2019-05-15T23:29:26.131Z,99.90
2019-05-15T23:31:58.406Z,99.90
2019-05-15T23:34:29.048Z,99.90
2019-05-15T23:36:59.548Z,99.90
2019-05-15T23:39:30.059Z,99.90
2019-05-15T23:42:00.614Z,99.90
2019-05-15T23:44:32.445Z,99.90
2019-05-15T23:47:04.314Z,99.90
2019-05-15T23:49:34.818Z,99.90
2019-05-15T23:52:05.356Z,99.90
2019-05-15T23:54:35.833Z,99.90
2019-05-15T23:57:08.709Z,99.90
2019-05-15T23:59:38.570Z,99.90
